Terminal Aerodrome Forecast
Issued by NWS Cleveland, OH

Home | Current Version | Previous Version | Graphics & Text | Print | Product List | Glossary On
Versions: 1 2 3 4 5 6 7 8 9 10 11 12 13 14 15 16
829
FTUS41 KCLE 051127
TAFMFD
TAF
KMFD 051127Z 0512/0612 32010KT 4SM -SHRA BR BKN008 OVC015
      TEMPO 0512/0514 2SM BR BKN004
     FM051700 36010KT P6SM SCT008 OVC015
     FM052000 01012G22KT P6SM SCT015 OVC035
     FM060000 36010KT P6SM BKN050
     FM060700 35006KT P6SM SCT250=

USA.gov is the U.S. government's official web portal to all federal, state and local government web resources and services.